createdAt,value
2019-04-19T00:00:12.812Z,0.00
2019-04-19T00:01:12.203Z,0.00
2019-04-19T00:02:12.244Z,0.00
2019-04-19T00:03:10.785Z,0.00
2019-04-19T00:04:11.776Z,0.00
2019-04-19T00:05:09.334Z,0.00
2019-04-19T00:06:15.150Z,0.00
2019-04-19T00:07:15.495Z,0.00
2019-04-19T00:08:19.998Z,0.00
2019-04-19T00:09:22.863Z,0.00
2019-04-19T00:10:57.026Z,0.00
2019-04-19T00:12:01.911Z,0.00
2019-04-19T00:12:54.965Z,0.00
2019-04-19T00:13:51.477Z,0.00
2019-04-19T00:14:50.657Z,0.00
2019-04-19T00:15:50.119Z,0.00
2019-04-19T00:16:51.072Z,0.00
2019-04-19T00:17:52.560Z,0.00
2019-04-19T00:19:14.329Z,0.00
2019-04-19T00:20:16.926Z,0.00
2019-04-19T00:21:08.094Z,0.00
2019-04-19T00:22:25.142Z,0.00
2019-04-19T00:23:04.297Z,0.00
2019-04-19T00:23:52.954Z,0.00
2019-04-19T00:24:50.110Z,0.00
2019-04-19T00:25:49.832Z,0.00
2019-04-19T00:26:50.746Z,0.00
2019-04-19T00:27:55.616Z,0.00
2019-04-19T00:28:55.822Z,0.00
2019-04-19T00:29:56.107Z,0.00
2019-04-19T00:30:59.239Z,0.00
2019-04-19T00:32:08.172Z,0.00
2019-04-19T00:33:05.483Z,0.00
2019-04-19T00:33:52.938Z,0.00
2019-04-19T00:34:50.488Z,0.00
2019-04-19T00:35:49.706Z,0.00
2019-04-19T00:36:50.830Z,0.00
2019-04-19T00:37:52.320Z,0.00
2019-04-19T00:39:05.092Z,0.00
2019-04-19T00:40:07.503Z,0.00
2019-04-19T00:41:11.595Z,0.00
2019-04-19T00:42:13.013Z,0.00
2019-04-19T00:43:05.342Z,0.00
2019-04-19T00:44:02.609Z,0.00
2019-04-19T00:45:07.892Z,0.00
2019-04-19T00:46:14.669Z,0.00
2019-04-19T00:47:09.109Z,0.00
2019-04-19T00:48:02.962Z,0.00
2019-04-19T00:49:02.929Z,0.00
2019-04-19T00:50:02.900Z,0.00
2019-04-19T00:51:05.048Z,0.00
2019-04-19T00:51:59.825Z,0.00
2019-04-19T00:53:05.654Z,0.00
2019-04-19T00:54:02.358Z,0.00
2019-04-19T00:54:59.046Z,0.00
2019-04-19T00:55:59.887Z,0.00
2019-04-19T00:56:57.883Z,0.00
2019-04-19T00:57:53.631Z,0.00
2019-04-19T00:58:56.593Z,0.00
2019-04-19T00:59:51.800Z,0.00
2019-04-19T01:00:49.207Z,0.00
2019-04-19T01:01:57.632Z,0.00
2019-04-19T01:02:52.154Z,0.00
2019-04-19T01:03:50.655Z,0.00
2019-04-19T01:04:55.701Z,0.00
2019-04-19T01:05:58.098Z,0.00
2019-04-19T01:06:53.540Z,0.00
2019-04-19T01:07:49.482Z,0.00
2019-04-19T01:08:58.580Z,0.00
2019-04-19T01:10:07.088Z,0.00
2019-04-19T01:11:06.062Z,0.00
2019-04-19T01:12:04.407Z,0.00
2019-04-19T01:13:04.100Z,0.00
2019-04-19T01:14:01.425Z,0.00
2019-04-19T01:15:04.685Z,0.00
2019-04-19T01:17:30.497Z,0.00
2019-04-19T01:18:26.414Z,0.00
2019-04-19T01:19:16.063Z,0.00
2019-04-19T01:20:14.454Z,0.00
2019-04-19T01:21:13.242Z,0.00
2019-04-19T01:22:18.252Z,0.00
2019-04-19T01:23:16.291Z,0.00
2019-04-19T01:24:13.438Z,0.00
2019-04-19T01:25:20.270Z,0.00
2019-04-19T01:26:15.150Z,0.00
2019-04-19T01:27:20.441Z,0.00
2019-04-19T01:28:17.762Z,0.00
2019-04-19T01:29:15.632Z,0.00
2019-04-19T01:30:17.937Z,0.00
2019-04-19T01:31:19.094Z,0.00
2019-04-19T01:32:16.400Z,0.00
2019-04-19T01:33:12.691Z,0.00
2019-04-19T01:34:18.205Z,0.00
2019-04-19T01:35:16.584Z,0.00
2019-04-19T01:36:12.603Z,0.00
2019-04-19T01:37:17.636Z,0.00
2019-04-19T01:38:13.610Z,0.00
2019-04-19T01:39:25.254Z,0.00
2019-04-19T01:40:26.947Z,0.00
2019-04-19T01:41:29.656Z,0.00
2019-04-19T01:42:34.896Z,0.00
2019-04-19T01:43:27.862Z,0.00
2019-04-19T01:44:45.856Z,0.00
2019-04-19T01:45:27.091Z,0.00
2019-04-19T01:46:30.758Z,0.00
2019-04-19T01:47:32.558Z,0.00
2019-04-19T01:48:31.103Z,0.00
2019-04-19T01:49:22.679Z,0.00
2019-04-19T01:50:24.717Z,0.00
2019-04-19T01:51:36.283Z,0.00
2019-04-19T01:52:42.009Z,0.00
2019-04-19T01:53:30.665Z,0.00
2019-04-19T01:54:29.469Z,0.00
2019-04-19T01:55:18.881Z,0.00
2019-04-19T01:56:15.552Z,0.00
2019-04-19T01:57:14.299Z,0.00
2019-04-19T01:58:16.164Z,0.00
2019-04-19T01:59:12.036Z,0.00
2019-04-19T02:00:16.985Z,0.00
2019-04-19T02:01:17.602Z,0.00
2019-04-19T02:02:16.085Z,0.00
2019-04-19T02:03:12.633Z,0.00
2019-04-19T02:04:19.078Z,0.00
2019-04-19T02:05:16.392Z,0.00
2019-04-19T02:06:14.615Z,0.00
2019-04-19T02:07:18.048Z,0.00
2019-04-19T02:08:14.318Z,0.00
2019-04-19T02:09:11.637Z,0.00
2019-04-19T02:10:22.797Z,0.00
2019-04-19T02:11:23.216Z,0.00
2019-04-19T02:12:26.214Z,0.00
2019-04-19T02:13:19.664Z,0.00
2019-04-19T02:14:18.166Z,0.00
2019-04-19T02:15:15.909Z,0.00
2019-04-19T02:16:16.990Z,0.00
2019-04-19T02:17:14.472Z,0.00
2019-04-19T02:18:21.870Z,0.00
2019-04-19T02:19:16.220Z,0.00
2019-04-19T02:20:12.398Z,0.00
2019-04-19T02:21:13.188Z,0.00
2019-04-19T02:22:16.099Z,0.00
2019-04-19T02:23:15.473Z,0.00
2019-04-19T02:24:12.513Z,0.00
2019-04-19T02:25:17.020Z,0.00
2019-04-19T02:26:14.594Z,0.00
2019-04-19T05:28:59.726Z,11128.00
2019-04-19T05:29:48.362Z,11392.00
2019-04-19T05:30:51.970Z,11624.00
2019-04-19T05:31:49.577Z,11816.00
2019-04-19T05:32:55.895Z,12084.00
2019-04-19T05:46:51.670Z,14944.00
2019-04-19T05:47:41.942Z,15104.00
2019-04-19T05:48:37.114Z,15392.00
2019-04-19T05:49:45.305Z,15328.00
2019-04-19T05:50:49.661Z,15456.00
2019-04-19T05:51:47.274Z,15680.00
2019-04-19T05:52:46.043Z,16000.00
2019-04-19T05:53:35.812Z,16288.00
2019-04-19T05:54:27.880Z,16640.00
2019-04-19T05:55:28.044Z,16800.00
2019-04-19T05:56:26.839Z,17120.00
2019-04-19T05:57:45.491Z,17408.00
2019-04-19T05:58:41.347Z,18080.00
2019-04-19T06:01:05.772Z,18944.00
2019-04-19T06:02:05.465Z,19456.00
2019-04-19T06:03:04.322Z,19488.00
2019-04-19T06:04:11.917Z,19456.00
2019-04-19T06:05:18.806Z,19808.00
2019-04-19T06:06:20.738Z,20096.00
2019-04-19T06:07:10.912Z,20448.00
2019-04-19T06:08:04.154Z,20672.00
2019-04-19T06:08:51.894Z,21216.00
2019-04-19T06:09:51.917Z,21408.00
2019-04-19T06:10:56.635Z,21664.00
2019-04-19T06:11:51.494Z,21824.00
2019-04-19T06:13:01.337Z,22336.00
2019-04-19T06:14:12.646Z,22560.00
2019-04-19T06:15:13.644Z,23136.00
2019-04-19T06:16:11.463Z,23872.00
2019-04-19T06:17:03.006Z,23968.00
2019-04-19T06:18:10.703Z,24128.00
2019-04-19T06:19:12.465Z,24608.00
2019-04-19T06:20:11.342Z,24896.00
2019-04-19T06:21:15.784Z,25184.00
2019-04-19T06:22:07.092Z,25568.00
2019-04-19T06:23:09.181Z,25920.00
2019-04-19T06:24:12.429Z,26912.00
2019-04-19T06:25:06.470Z,27680.00
2019-04-19T06:26:39.774Z,28032.00
2019-04-19T06:27:18.723Z,28448.00
2019-04-19T06:28:19.048Z,28864.00
2019-04-19T06:29:11.047Z,30048.00
2019-04-19T06:30:15.064Z,30336.00
2019-04-19T06:31:18.075Z,30240.00
2019-04-19T06:32:17.824Z,31072.00
2019-04-19T06:33:15.059Z,31680.00
2019-04-19T06:34:12.283Z,32224.00
2019-04-19T06:35:07.762Z,32512.00
2019-04-19T06:35:57.324Z,32576.00
2019-04-19T06:37:01.782Z,33856.00
2019-04-19T06:37:50.602Z,34016.00
2019-04-19T06:38:50.795Z,33888.00
2019-04-19T06:40:02.750Z,34624.00
2019-04-19T06:40:57.291Z,35424.00
2019-04-19T06:42:00.081Z,35744.00
2019-04-19T06:43:01.159Z,36512.00
2019-04-19T06:44:02.954Z,37408.00
2019-04-19T06:45:13.500Z,37728.00
2019-04-19T06:46:07.064Z,37536.00
2019-04-19T06:47:02.836Z,37504.00
2019-04-19T06:47:58.900Z,39200.00
2019-04-19T06:48:59.662Z,37632.00
2019-04-19T06:49:53.732Z,38528.00
2019-04-19T06:50:54.736Z,38784.00
2019-04-19T06:51:58.746Z,37664.00
2019-04-19T06:52:50.985Z,36768.00
2019-04-19T06:53:58.241Z,36608.00
2019-04-19T06:54:51.593Z,36160.00
2019-04-19T06:55:53.555Z,37056.00
2019-04-19T06:57:00.759Z,34944.00
2019-04-19T06:58:02.949Z,33248.00
2019-04-19T06:59:04.240Z,32736.00
2019-04-19T07:00:03.373Z,31392.00
2019-04-19T07:01:04.849Z,30432.00
2019-04-19T07:01:55.576Z,28928.00
2019-04-19T07:02:50.033Z,27648.00
2019-04-19T07:03:50.006Z,26240.00
2019-04-19T07:05:03.434Z,25376.00
2019-04-19T07:06:10.452Z,25600.00
2019-04-19T07:07:10.597Z,25728.00
2019-04-19T07:08:18.177Z,25312.00
2019-04-19T07:09:16.932Z,25504.00
2019-04-19T07:10:23.617Z,30976.00
2019-04-19T07:11:11.614Z,47168.00
2019-04-19T07:12:16.638Z,53216.00
2019-04-19T07:13:09.050Z,48992.00
2019-04-19T07:13:58.405Z,45472.00
2019-04-19T07:15:12.400Z,44864.00
2019-04-19T07:16:14.588Z,43552.00
2019-04-19T07:17:10.952Z,44288.00
2019-04-19T07:18:02.790Z,43136.00
2019-04-19T07:19:10.795Z,41984.00
2019-04-19T07:20:04.614Z,42720.00
2019-04-19T07:21:12.600Z,44000.00
2019-04-19T07:22:06.200Z,43776.00
2019-04-19T07:23:03.299Z,43744.00
2019-04-19T07:24:16.286Z,44256.00
2019-04-19T07:25:20.073Z,43168.00
2019-04-19T07:26:10.263Z,43392.00
2019-04-19T07:27:10.020Z,43776.00
2019-04-19T07:27:59.505Z,44832.00
2019-04-19T07:28:49.680Z,43328.00
2019-04-19T07:29:50.566Z,43712.00
2019-04-19T07:30:57.489Z,43680.00
2019-04-19T07:31:49.614Z,43776.00
2019-04-19T07:33:44.124Z,42624.00
2019-04-19T07:34:50.631Z,41888.00
2019-04-19T07:35:58.832Z,40928.00
2019-04-19T07:36:49.895Z,42112.00
2019-04-19T07:37:47.290Z,43168.00
2019-04-19T07:38:53.367Z,43072.00
2019-04-19T07:40:00.462Z,43680.00
2019-04-19T07:40:50.006Z,42816.00
2019-04-19T07:41:50.708Z,42720.00
2019-04-19T07:43:30.050Z,42880.00
2019-04-19T07:44:27.406Z,43680.00
2019-04-19T07:45:22.950Z,42944.00
2019-04-19T07:46:31.119Z,43008.00
2019-04-19T07:47:27.721Z,43872.00
2019-04-19T07:48:18.461Z,43456.00
2019-04-19T07:49:15.538Z,44576.00
2019-04-19T07:50:19.743Z,45280.00
2019-04-19T07:51:20.622Z,45568.00
2019-04-19T07:52:19.916Z,45824.00
2019-04-19T07:53:19.944Z,45120.00
2019-04-19T07:54:17.898Z,46240.00
2019-04-19T07:55:15.415Z,46720.00
2019-04-19T07:56:24.678Z,45760.00
2019-04-19T07:57:51.964Z,46624.00
2019-04-19T07:58:44.565Z,46432.00
2019-04-19T08:01:24.387Z,50624.00
2019-04-19T08:02:47.140Z,49568.00
2019-04-19T08:04:33.119Z,50432.00
2019-04-19T08:05:15.141Z,51520.00
2019-04-19T08:06:33.326Z,52320.00
2019-04-19T08:07:29.129Z,50336.00
2019-04-19T08:08:32.661Z,51136.00
2019-04-19T08:11:58.874Z,52416.00
2019-04-19T08:12:42.219Z,53984.00
2019-04-19T08:14:48.204Z,55968.00
2019-04-19T08:15:55.108Z,58848.00
2019-04-19T08:27:23.081Z,64096.00
2019-04-19T08:28:14.133Z,63904.00
2019-04-19T08:29:21.044Z,65536.00
2019-04-19T08:30:07.957Z,68352.00
2019-04-19T08:31:06.185Z,67424.00
2019-04-19T08:32:02.943Z,66048.00
2019-04-19T08:33:03.049Z,68608.00
2019-04-19T08:34:09.290Z,71648.00
2019-04-19T08:35:06.978Z,71008.00
2019-04-19T08:36:07.410Z,72704.00
2019-04-19T08:37:06.156Z,73920.00
2019-04-19T08:38:08.187Z,72800.00
2019-04-19T08:39:17.938Z,72512.00
2019-04-19T08:40:22.021Z,72480.00
2019-04-19T08:41:13.659Z,76000.00
2019-04-19T08:42:20.602Z,75776.00
2019-04-19T08:43:21.033Z,76800.00
2019-04-19T08:44:18.057Z,78912.00
2019-04-19T08:45:08.292Z,76352.00
2019-04-19T08:46:02.864Z,75584.00
2019-04-19T08:47:02.472Z,78432.00
2019-04-19T08:48:10.068Z,77536.00
2019-04-19T08:49:05.726Z,74624.00
2019-04-19T08:50:06.774Z,74240.00
2019-04-19T08:51:03.830Z,77568.00
2019-04-19T08:52:07.227Z,79648.00
2019-04-19T08:53:22.269Z,80000.00
2019-04-19T08:54:25.853Z,79456.00
2019-04-19T08:55:13.959Z,78944.00
2019-04-19T08:56:16.412Z,81920.00
2019-04-19T08:57:08.186Z,79520.00
2019-04-19T08:58:08.423Z,80000.00
2019-04-19T09:00:04.801Z,80192.00
2019-04-19T09:01:12.367Z,79968.00
2019-04-19T09:02:07.274Z,81920.00
2019-04-19T09:02:59.462Z,82080.00
2019-04-19T09:04:02.700Z,82720.00
2019-04-19T09:07:18.679Z,81728.00
2019-04-19T09:15:57.105Z,84096.00
2019-04-19T09:17:03.200Z,84128.00
2019-04-19T09:18:20.931Z,87296.00
2019-04-19T09:19:02.240Z,86240.00
2019-04-19T09:20:56.730Z,83232.00
2019-04-19T09:21:52.049Z,85760.00
2019-04-19T09:22:49.060Z,84192.00
2019-04-19T09:23:46.979Z,83680.00
2019-04-19T09:24:51.816Z,84288.00
2019-04-19T09:25:48.839Z,84960.00
2019-04-19T09:26:54.226Z,82240.00
2019-04-19T09:28:00.341Z,81568.00
2019-04-19T09:29:12.438Z,82880.00
2019-04-19T09:31:58.708Z,81504.00
2019-04-19T09:32:46.781Z,80192.00
2019-04-19T09:33:47.303Z,81888.00
2019-04-19T09:34:50.922Z,81024.00
2019-04-19T09:35:55.034Z,81472.00
2019-04-19T09:36:57.810Z,83104.00
2019-04-19T09:37:57.158Z,83040.00
2019-04-19T09:39:03.015Z,83520.00
2019-04-19T09:39:55.225Z,83072.00
2019-04-19T09:41:38.330Z,81536.00
2019-04-19T09:42:38.818Z,81408.00
2019-04-19T09:43:37.951Z,84544.00
2019-04-19T09:44:36.540Z,84960.00
2019-04-19T09:45:27.643Z,81056.00
2019-04-19T09:46:27.640Z,82624.00
2019-04-19T09:47:27.303Z,84576.00
2019-04-19T09:48:46.391Z,83360.00
2019-04-19T09:49:44.006Z,81120.00
2019-04-19T09:50:44.254Z,82560.00
2019-04-19T09:51:42.646Z,83584.00
2019-04-19T09:52:47.635Z,85120.00
2019-04-19T09:53:46.404Z,83552.00
2019-04-19T09:54:51.453Z,85632.00
2019-04-19T09:55:49.886Z,87040.00
2019-04-19T09:56:47.153Z,84224.00
2019-04-19T09:57:48.223Z,85344.00
2019-04-19T09:58:43.350Z,83584.00
2019-04-19T09:59:32.842Z,81120.00
2019-04-19T10:00:30.079Z,83104.00
2019-04-19T10:01:30.188Z,85536.00
2019-04-19T10:02:33.850Z,87904.00
2019-04-19T10:03:36.858Z,87680.00
2019-04-19T10:04:27.311Z,87104.00
2019-04-19T10:05:27.058Z,84096.00
2019-04-19T10:06:27.024Z,81024.00
2019-04-19T10:07:27.158Z,83264.00
2019-04-19T10:08:28.095Z,83584.00
2019-04-19T10:09:27.320Z,84512.00
2019-04-19T10:10:27.051Z,85664.00
2019-04-19T10:11:27.332Z,83968.00
2019-04-19T10:12:27.212Z,83072.00
2019-04-19T10:13:27.943Z,84000.00
2019-04-19T10:14:27.722Z,83136.00
2019-04-19T10:15:27.996Z,83232.00
2019-04-19T10:16:26.883Z,85024.00
2019-04-19T10:17:26.898Z,85344.00
2019-04-19T10:18:26.861Z,85856.00
2019-04-19T10:19:26.842Z,87552.00
2019-04-19T10:20:26.825Z,83584.00
2019-04-19T10:21:32.379Z,83584.00
2019-04-19T10:22:26.812Z,86848.00
2019-04-19T10:23:27.276Z,84160.00
2019-04-19T10:24:27.784Z,85056.00
2019-04-19T10:25:27.646Z,85664.00
2019-04-19T10:26:26.742Z,86400.00
2019-04-19T10:27:27.084Z,88736.00
2019-04-19T10:28:27.364Z,87456.00
2019-04-19T10:29:31.561Z,85536.00
2019-04-19T10:30:26.690Z,86816.00
2019-04-19T10:31:27.258Z,86080.00
2019-04-19T10:32:26.687Z,86144.00
2019-04-19T10:33:35.538Z,85728.00
2019-04-19T10:34:26.636Z,86848.00
2019-04-19T10:35:27.406Z,86720.00
2019-04-19T10:36:26.711Z,90752.00
2019-04-19T10:37:28.072Z,92640.00
2019-04-19T10:38:27.568Z,89088.00
2019-04-19T10:41:34.223Z,88704.00
2019-04-19T10:42:33.749Z,90144.00
2019-04-19T10:43:34.961Z,88640.00
2019-04-19T10:44:34.134Z,88448.00
2019-04-19T10:45:34.240Z,90912.00
2019-04-19T10:46:34.144Z,91840.00
2019-04-19T10:47:33.886Z,91680.00
2019-04-19T10:49:26.256Z,91296.00
2019-04-19T10:50:29.477Z,91168.00
2019-04-19T10:51:17.502Z,90112.00
2019-04-19T10:52:17.329Z,90592.00
2019-04-19T10:53:18.987Z,87232.00
2019-04-19T10:54:16.000Z,91424.00
2019-04-19T10:55:16.289Z,92608.00
2019-04-19T10:56:16.407Z,91104.00
2019-04-19T10:57:17.459Z,91648.00
2019-04-19T10:58:17.058Z,91488.00
2019-04-19T10:59:16.452Z,90144.00
2019-04-19T11:00:15.936Z,90336.00
2019-04-19T11:01:15.904Z,90464.00
2019-04-19T11:02:16.100Z,92448.00
2019-04-19T11:03:16.949Z,95104.00
2019-04-19T11:04:16.946Z,92448.00
2019-04-19T11:05:16.757Z,90432.00
2019-04-19T11:06:16.816Z,90208.00
2019-04-19T11:07:15.828Z,91456.00
2019-04-19T11:08:15.814Z,92416.00
2019-04-19T11:09:16.429Z,92000.00
2019-04-19T11:10:15.926Z,93888.00
2019-04-19T11:11:15.919Z,92192.00
2019-04-19T11:12:15.765Z,89376.00
2019-04-19T11:13:17.935Z,88192.00
2019-04-19T11:14:16.369Z,90080.00
2019-04-19T11:15:16.197Z,90336.00
2019-04-19T11:16:15.708Z,91808.00
2019-04-19T11:17:16.003Z,93920.00
2019-04-19T11:18:15.700Z,92000.00
2019-04-19T11:19:20.888Z,91328.00
2019-04-19T11:20:26.262Z,93472.00
2019-04-19T11:21:15.886Z,89472.00
2019-04-19T11:22:15.629Z,86688.00
2019-04-19T11:23:15.639Z,89376.00
2019-04-19T11:24:15.862Z,92224.00
2019-04-19T11:25:15.589Z,93984.00
2019-04-19T11:26:16.870Z,93152.00
2019-04-19T11:27:15.565Z,92256.00
2019-04-19T11:28:15.555Z,92512.00
2019-04-19T11:29:15.641Z,94816.00
2019-04-19T11:30:15.526Z,95264.00
2019-04-19T11:31:17.649Z,93344.00
2019-04-19T11:32:15.808Z,95520.00
2019-04-19T11:33:15.487Z,96672.00
2019-04-19T11:34:15.474Z,95968.00
2019-04-19T11:35:15.462Z,94752.00
2019-04-19T11:36:15.480Z,94656.00
2019-04-19T11:37:16.736Z,91840.00
2019-04-19T11:38:15.423Z,90464.00
2019-04-19T11:39:15.410Z,92192.00
2019-04-19T11:40:15.424Z,92480.00
2019-04-19T11:41:15.450Z,93984.00
2019-04-19T11:42:15.372Z,93888.00
2019-04-19T11:43:16.206Z,95968.00
2019-04-19T11:44:22.968Z,96384.00
2019-04-19T11:45:15.781Z,94816.00
2019-04-19T11:46:16.074Z,93024.00
2019-04-19T11:47:15.407Z,96096.00
2019-04-19T11:48:15.297Z,96288.00
2019-04-19T11:49:25.665Z,94624.00
2019-04-19T11:50:15.774Z,92672.00
2019-04-19T11:51:16.082Z,91872.00
2019-04-19T11:52:15.243Z,93344.00
2019-04-19T11:53:16.328Z,94048.00
2019-04-19T11:54:16.504Z,93920.00
2019-04-19T11:55:15.205Z,93408.00
2019-04-19T11:56:16.428Z,92768.00
2019-04-19T11:57:16.490Z,93088.00
2019-04-19T11:58:15.179Z,94496.00
2019-04-19T11:59:16.297Z,93120.00
2019-04-19T12:00:15.586Z,91552.00
2019-04-19T12:01:16.227Z,91488.00
2019-04-19T12:02:15.617Z,96608.00
2019-04-19T12:03:16.118Z,94656.00
2019-04-19T12:04:16.233Z,89728.00
2019-04-19T12:05:21.073Z,94976.00
2019-04-19T12:06:16.183Z,96416.00
2019-04-19T12:07:15.043Z,83712.00
2019-04-19T12:08:15.032Z,76032.00
2019-04-19T12:09:16.354Z,77248.00
2019-04-19T12:10:15.009Z,77536.00
2019-04-19T12:11:14.995Z,80704.00
2019-04-19T12:12:15.073Z,85504.00
2019-04-19T12:13:15.232Z,94336.00
2019-04-19T12:14:16.348Z,97120.00
2019-04-19T12:15:15.786Z,94368.00
2019-04-19T12:16:15.057Z,93408.00
2019-04-19T12:17:15.253Z,91424.00
2019-04-19T12:18:15.823Z,93728.00
2019-04-19T12:19:16.110Z,95584.00
2019-04-19T12:20:15.246Z,95136.00
2019-04-19T12:21:15.406Z,94112.00
2019-04-19T12:22:14.973Z,92768.00
2019-04-19T12:23:15.847Z,93568.00
2019-04-19T12:24:15.039Z,97120.00
2019-04-19T12:25:15.518Z,98336.00
2019-04-19T12:26:15.615Z,93472.00
2019-04-19T12:27:15.818Z,90528.00
2019-04-19T12:28:15.343Z,90368.00
2019-04-19T12:29:26.347Z,88416.00
2019-04-19T12:30:15.694Z,89888.00
2019-04-19T12:31:15.673Z,89888.00
2019-04-19T12:32:15.029Z,89664.00
2019-04-19T12:33:15.318Z,85984.00
2019-04-19T12:34:14.956Z,88480.00
2019-04-19T12:35:14.665Z,88064.00
2019-04-19T12:36:15.165Z,85792.00
2019-04-19T12:37:15.254Z,86496.00
2019-04-19T12:38:14.621Z,86016.00
2019-04-19T12:39:14.865Z,85440.00
2019-04-19T12:40:14.950Z,85664.00
2019-04-19T12:41:14.576Z,84032.00
2019-04-19T12:42:15.693Z,79616.00
2019-04-19T12:43:16.251Z,80960.00
2019-04-19T12:44:15.258Z,80160.00
2019-04-19T12:45:15.650Z,79872.00
2019-04-19T12:46:14.823Z,82656.00
2019-04-19T12:47:15.110Z,86400.00
2019-04-19T12:48:14.481Z,87968.00
2019-04-19T12:59:09.482Z,75776.00
2019-04-19T13:00:08.253Z,80640.00
2019-04-19T13:01:08.242Z,82240.00
2019-04-19T13:02:09.303Z,82304.00
2019-04-19T13:03:08.005Z,80192.00
2019-04-19T13:04:08.597Z,80256.00
2019-04-19T13:05:08.697Z,80544.00
2019-04-19T13:06:09.035Z,79712.00
2019-04-19T13:07:08.802Z,80576.00
2019-04-19T13:08:09.412Z,69888.00
2019-04-19T13:09:08.998Z,34016.00
2019-04-19T13:10:09.024Z,39328.00
2019-04-19T13:11:09.085Z,72896.00
2019-04-19T13:12:08.601Z,74784.00
2019-04-19T13:13:07.864Z,71392.00
2019-04-19T13:14:08.023Z,70400.00
2019-04-19T13:15:07.841Z,71872.00
2019-04-19T13:16:08.357Z,72352.00
2019-04-19T13:17:08.357Z,69408.00
2019-04-19T13:18:07.789Z,68928.00
2019-04-19T13:19:08.115Z,66976.00
2019-04-19T13:20:15.645Z,68928.00
2019-04-19T13:21:08.179Z,78432.00
2019-04-19T13:22:08.275Z,82336.00
2019-04-19T13:23:08.496Z,70976.00
2019-04-19T13:24:08.810Z,62368.00
2019-04-19T13:25:09.059Z,60128.00
2019-04-19T13:26:07.672Z,59232.00
2019-04-19T13:27:07.658Z,58816.00
2019-04-19T13:28:07.929Z,55264.00
2019-04-19T13:29:07.631Z,56224.00
2019-04-19T13:30:18.426Z,54784.00
2019-04-19T13:31:08.014Z,47936.00
2019-04-19T13:32:07.849Z,45824.00
2019-04-19T13:33:08.170Z,49120.00
2019-04-19T13:34:07.561Z,56416.00
2019-04-19T13:35:07.567Z,63520.00
2019-04-19T13:36:07.535Z,62432.00
2019-04-19T13:37:07.720Z,66080.00
2019-04-19T13:38:07.504Z,67392.00
2019-04-19T13:39:07.491Z,74336.00
2019-04-19T13:40:08.184Z,101504.00
2019-04-19T13:41:07.460Z,128128.00
2019-04-19T13:42:08.504Z,107200.00
2019-04-19T13:43:07.431Z,83008.00
2019-04-19T13:44:07.422Z,92576.00
2019-04-19T13:45:17.371Z,97824.00
2019-04-19T13:46:08.535Z,89920.00
2019-04-19T13:47:08.740Z,86336.00
2019-04-19T13:48:07.362Z,86080.00
2019-04-19T13:49:08.465Z,85664.00
2019-04-19T13:50:16.863Z,82400.00
2019-04-19T13:51:07.324Z,78592.00
2019-04-19T13:52:08.428Z,77920.00
2019-04-19T13:53:07.291Z,79904.00
2019-04-19T13:54:07.275Z,82080.00
2019-04-19T13:55:08.573Z,85248.00
2019-04-19T13:56:07.249Z,86848.00
2019-04-19T13:57:07.928Z,87232.00
2019-04-19T13:58:07.645Z,84864.00
2019-04-19T13:59:07.655Z,77344.00
2019-04-19T14:00:08.860Z,84448.00
2019-04-19T14:01:07.184Z,91840.00
2019-04-19T14:02:08.416Z,89824.00
2019-04-19T14:03:07.532Z,89248.00
2019-04-19T14:04:07.832Z,88192.00
2019-04-19T14:05:07.358Z,84896.00
2019-04-19T14:06:08.438Z,86240.00
2019-04-19T14:07:07.335Z,83904.00
2019-04-19T14:08:07.279Z,77792.00
2019-04-19T14:09:07.261Z,75008.00
2019-04-19T14:10:07.377Z,76576.00
2019-04-19T14:11:07.030Z,76544.00
2019-04-19T14:12:07.136Z,75680.00
2019-04-19T14:13:07.305Z,77440.00
2019-04-19T14:14:07.798Z,75776.00
2019-04-19T14:15:06.973Z,74368.00
2019-04-19T14:16:07.160Z,76672.00
2019-04-19T14:17:06.942Z,77216.00
2019-04-19T14:18:06.926Z,75040.00
2019-04-19T14:19:08.341Z,73536.00
2019-04-19T14:20:07.118Z,74560.00
2019-04-19T14:21:06.888Z,74528.00
2019-04-19T14:22:07.069Z,74624.00
2019-04-19T14:23:07.693Z,71872.00
2019-04-19T14:24:07.150Z,66720.00
2019-04-19T14:25:07.385Z,69632.00
2019-04-19T14:26:07.676Z,72288.00
2019-04-19T14:27:06.992Z,69184.00
2019-04-19T14:28:07.339Z,70432.00
2019-04-19T14:29:07.546Z,70528.00
2019-04-19T14:30:06.745Z,68672.00
2019-04-19T14:31:07.131Z,67264.00
2019-04-19T14:32:07.318Z,64960.00
2019-04-19T14:33:06.717Z,66400.00
2019-04-19T14:34:06.866Z,68160.00
2019-04-19T14:35:07.986Z,67840.00
2019-04-19T14:36:07.842Z,68128.00
2019-04-19T14:37:08.015Z,66432.00
2019-04-19T14:38:07.547Z,63680.00
2019-04-19T14:39:06.795Z,65344.00
2019-04-19T14:40:06.967Z,68704.00
2019-04-19T14:41:07.357Z,63744.00
2019-04-19T14:42:07.654Z,61632.00
2019-04-19T14:43:06.820Z,62048.00
2019-04-19T14:44:07.238Z,63872.00
2019-04-19T14:45:07.885Z,63776.00
2019-04-19T14:46:06.854Z,61792.00
2019-04-19T14:47:06.485Z,61824.00
2019-04-19T14:48:06.815Z,60480.00
2019-04-19T14:49:07.072Z,60256.00
2019-04-19T14:50:07.333Z,62048.00
2019-04-19T14:51:12.213Z,61888.00
2019-04-19T14:52:07.714Z,62720.00
2019-04-19T14:53:06.382Z,59360.00
2019-04-19T14:54:06.952Z,56640.00
2019-04-19T14:55:07.810Z,58752.00
2019-04-19T14:56:06.935Z,59904.00
2019-04-19T14:57:07.259Z,58304.00
2019-04-19T14:58:06.497Z,59200.00
2019-04-19T14:59:06.283Z,57824.00
2019-04-19T15:00:07.077Z,55424.00
2019-04-19T15:01:06.861Z,55200.00
2019-04-19T15:02:07.038Z,55712.00
2019-04-19T15:03:07.146Z,53152.00
2019-04-19T15:04:06.731Z,53248.00
2019-04-19T15:05:07.564Z,54336.00
2019-04-19T15:06:06.166Z,54720.00
2019-04-19T15:07:07.557Z,51712.00
2019-04-19T15:08:06.414Z,51584.00
2019-04-19T15:09:06.105Z,52896.00
2019-04-19T15:10:06.087Z,54176.00
2019-04-19T15:11:07.416Z,49824.00
2019-04-19T15:12:06.911Z,47968.00
2019-04-19T15:13:07.086Z,50272.00
2019-04-19T15:14:06.183Z,50528.00
2019-04-19T15:15:06.224Z,52192.00
2019-04-19T15:16:08.689Z,52480.00
2019-04-19T15:17:07.170Z,50016.00
2019-04-19T15:18:06.517Z,50176.00
2019-04-19T15:19:06.644Z,50336.00
2019-04-19T15:20:05.912Z,50304.00
2019-04-19T15:21:11.126Z,49760.00
2019-04-19T15:22:06.217Z,49536.00
2019-04-19T15:23:06.635Z,49440.00
2019-04-19T15:24:05.857Z,47904.00
2019-04-19T15:25:06.696Z,48000.00
2019-04-19T15:26:06.722Z,48160.00
2019-04-19T15:27:07.168Z,47328.00
2019-04-19T15:28:06.774Z,46336.00
2019-04-19T15:29:07.006Z,46240.00
2019-04-19T15:30:05.737Z,46880.00
2019-04-19T15:31:06.016Z,46144.00
2019-04-19T15:32:06.371Z,44960.00
2019-04-19T15:33:06.664Z,46272.00
2019-04-19T15:34:06.151Z,46016.00
2019-04-19T15:35:05.848Z,45120.00
2019-04-19T15:36:06.284Z,45056.00
2019-04-19T15:37:05.814Z,45600.00
2019-04-19T15:38:05.909Z,45536.00
2019-04-19T15:39:06.040Z,44992.00
2019-04-19T15:40:05.758Z,43744.00
2019-04-19T15:41:06.196Z,44160.00
2019-04-19T15:42:48.117Z,45024.00
2019-04-19T15:43:48.493Z,43488.00
2019-04-19T15:44:49.020Z,43232.00
2019-04-19T15:45:47.858Z,43168.00
2019-04-19T15:46:48.043Z,44256.00
2019-04-19T15:47:48.647Z,45536.00
2019-04-19T15:48:51.990Z,45728.00
2019-04-19T15:49:48.239Z,44064.00
2019-04-19T16:52:59.647Z,8444.00
2019-04-19T16:53:58.603Z,8568.00
2019-04-19T16:55:00.399Z,8368.00
2019-04-19T16:55:59.503Z,8076.00
2019-04-19T16:57:07.797Z,7980.00
2019-04-19T16:57:58.870Z,8076.00
2019-04-19T16:59:01.201Z,8152.00
2019-04-19T16:59:58.260Z,7784.00
2019-04-19T17:00:58.753Z,7612.00
2019-04-19T17:08:19.962Z,7012.00
2019-04-19T17:09:20.673Z,6924.00
2019-04-19T17:10:20.450Z,6836.00
2019-04-19T17:11:19.710Z,6748.00
2019-04-19T17:12:20.853Z,6660.00
2019-04-19T17:13:20.527Z,6576.00